createdAt,value
2018-02-07T00:01:03.017Z,34.33
2018-02-07T00:04:04.438Z,42.50
2018-02-07T00:07:06.655Z,32.37
2018-02-07T00:10:08.055Z,36.60
2018-02-07T00:13:09.549Z,30.80
2018-02-07T00:16:11.001Z,30.53
2018-02-07T00:19:12.471Z,26.77
2018-02-07T00:22:13.926Z,31.07
2018-02-07T00:25:15.324Z,38.60
2018-02-07T00:28:17.493Z,26.77
2018-02-07T00:31:19.633Z,31.60
2018-02-07T00:34:21.136Z,30.13
2018-02-07T00:37:22.656Z,34.57
2018-02-07T00:40:24.151Z,38.80
2018-02-07T00:43:25.616Z,35.33
2018-02-07T00:46:27.156Z,35.93
2018-02-07T00:49:28.586Z,30.27
2018-02-07T00:52:30.055Z,31.57
2018-02-07T00:55:35.505Z,23.77
2018-02-07T00:58:37.728Z,41.53
2018-02-07T01:01:39.153Z,32.47
2018-02-07T01:04:40.502Z,29.30
2018-02-07T01:07:41.890Z,32.37
2018-02-07T01:10:43.314Z,34.50
2018-02-07T01:13:45.619Z,34.23
2018-02-07T01:16:47.816Z,32.77
2018-02-07T01:19:49.938Z,31.37
2018-02-07T01:22:51.297Z,30.93
2018-02-07T01:25:53.413Z,30.50
2018-02-07T01:28:54.776Z,28.67
2018-02-07T01:31:56.909Z,29.83
2018-02-07T01:34:58.303Z,33.20
2018-02-07T01:37:59.737Z,34.07
2018-02-07T01:41:02.235Z,34.10
2018-02-07T01:44:04.361Z,32.23
2018-02-07T01:47:06.517Z,30.53
2018-02-07T01:50:07.893Z,31.27
2018-02-07T01:53:09.308Z,29.70
2018-02-07T01:56:10.704Z,36.07
2018-02-07T01:59:12.823Z,34.57
2018-02-07T02:02:14.226Z,35.70
2018-02-07T02:05:15.549Z,28.80
2018-02-07T02:08:17.724Z,32.17
2018-02-07T02:11:19.126Z,31.70
2018-02-07T02:14:21.239Z,29.30
2018-02-07T02:17:23.383Z,35.43
2018-02-07T02:20:24.750Z,32.53
2018-02-07T02:23:26.132Z,35.23
2018-02-07T02:26:27.500Z,31.80
2018-02-07T02:29:28.861Z,32.70
2018-02-07T02:32:30.989Z,33.40
2018-02-07T02:35:32.410Z,30.40
2018-02-07T02:38:33.779Z,32.63
2018-02-07T02:41:35.184Z,38.47
2018-02-07T02:44:36.564Z,36.50
2018-02-07T02:47:37.942Z,32.20
2018-02-07T02:50:39.337Z,37.67
2018-02-07T02:53:41.482Z,30.53
2018-02-07T02:56:42.889Z,42.07
2018-02-07T02:59:44.294Z,34.90
2018-02-07T03:02:45.673Z,34.00
2018-02-07T03:05:47.077Z,35.23
2018-02-07T03:08:48.423Z,39.93
2018-02-07T03:11:49.825Z,38.20
2018-02-07T03:14:51.944Z,34.10
2018-02-07T03:17:53.376Z,43.90
2018-02-07T03:20:55.517Z,34.57
2018-02-07T03:23:57.644Z,42.23
2018-02-07T03:26:59.089Z,42.70
2018-02-07T03:30:01.232Z,38.07
2018-02-07T03:33:02.600Z,38.03
2018-02-07T03:36:04.012Z,35.53
2018-02-07T03:39:05.472Z,33.80
2018-02-07T03:42:06.834Z,38.47
2018-02-07T03:45:09.130Z,39.37
2018-02-07T03:48:11.228Z,39.50
2018-02-07T03:51:13.349Z,32.23
2018-02-07T03:54:14.725Z,33.73
2018-02-07T03:57:16.116Z,34.10
2018-02-07T04:00:17.486Z,44.77
2018-02-07T04:03:18.853Z,42.97
2018-02-07T04:06:20.963Z,44.60
2018-02-07T04:09:22.302Z,42.70
2018-02-07T04:12:23.698Z,37.97
2018-02-07T04:15:25.794Z,42.00
2018-02-07T04:18:27.938Z,38.33
2018-02-07T04:21:29.333Z,39.50
2018-02-07T04:24:30.674Z,42.73
2018-02-07T04:27:32.066Z,38.10
2018-02-07T04:30:33.445Z,39.30
2018-02-07T04:33:34.820Z,35.60
2018-02-07T04:36:36.191Z,36.87
2018-02-07T04:39:38.349Z,40.90
2018-02-07T04:42:39.762Z,41.10
2018-02-07T04:45:41.867Z,47.23
2018-02-07T04:48:43.980Z,37.63
2018-02-07T04:51:45.434Z,42.33
2018-02-07T04:54:47.506Z,42.13
2018-02-07T04:57:48.869Z,43.27
2018-02-07T05:00:50.214Z,39.00
2018-02-07T05:03:52.312Z,39.93
2018-02-07T05:06:54.449Z,47.63
2018-02-07T05:09:55.842Z,41.43
2018-02-07T05:12:57.202Z,41.90
2018-02-07T05:15:58.576Z,35.57
2018-02-07T05:18:59.944Z,40.40
2018-02-07T05:22:02.085Z,46.37
2018-02-07T05:25:03.454Z,41.63
2018-02-07T05:28:04.892Z,46.83
2018-02-07T05:31:07.003Z,42.20
2018-02-07T05:34:08.394Z,41.03
2018-02-07T05:37:09.784Z,48.57
2018-02-07T05:40:11.220Z,47.67
2018-02-07T05:43:12.613Z,39.33
2018-02-07T05:46:14.740Z,50.23
2018-02-07T05:49:16.120Z,38.60
2018-02-07T05:52:17.564Z,39.73
2018-02-07T05:55:18.940Z,43.70
2018-02-07T05:58:20.333Z,41.00
2018-02-07T06:01:22.464Z,43.23
2018-02-07T06:04:23.817Z,48.00
2018-02-07T06:07:25.989Z,49.00
2018-02-07T06:10:27.342Z,37.30
2018-02-07T06:13:28.729Z,44.40
2018-02-07T06:16:30.070Z,38.73
2018-02-07T06:19:32.247Z,38.97
2018-02-07T06:22:33.668Z,39.10
2018-02-07T06:25:35.064Z,39.40
2018-02-07T06:28:36.478Z,42.63
2018-02-07T06:31:37.894Z,44.07
2018-02-07T06:34:39.990Z,42.67
2018-02-07T06:37:42.122Z,47.33
2018-02-07T06:40:43.510Z,48.40
2018-02-07T06:43:44.937Z,44.07
2018-02-07T06:46:46.318Z,39.23
2018-02-07T06:49:47.652Z,43.00
2018-02-07T06:52:49.035Z,46.33
2018-02-07T06:55:50.438Z,43.17
2018-02-07T06:58:51.860Z,37.20
2018-02-07T07:01:53.970Z,42.03
2018-02-07T07:04:55.521Z,47.80
2018-02-07T07:07:56.881Z,38.63
2018-02-07T07:10:58.258Z,42.10
2018-02-07T07:13:59.634Z,48.40
2018-02-07T07:17:01.022Z,37.30
2018-02-07T07:20:02.474Z,46.40
2018-02-07T07:23:03.835Z,44.73
2018-02-07T07:26:05.990Z,45.13
2018-02-07T07:29:07.391Z,53.90
2018-02-07T07:32:08.806Z,44.77
2018-02-07T07:35:10.210Z,64.00
2018-02-07T07:38:11.554Z,47.17
2018-02-07T07:41:13.667Z,48.27
2018-02-07T07:44:14.993Z,44.90
2018-02-07T07:47:16.460Z,54.60
2018-02-07T07:50:17.834Z,44.37
2018-02-07T07:53:19.248Z,50.47
2018-02-07T07:56:20.677Z,51.80
2018-02-07T07:59:22.057Z,52.63
2018-02-07T08:02:23.436Z,50.20
2018-02-07T08:05:24.866Z,49.13
2018-02-07T08:08:26.256Z,49.87
2018-02-07T08:11:27.592Z,50.43
2018-02-07T08:14:28.990Z,48.23
2018-02-07T08:17:30.322Z,45.93
2018-02-07T08:23:40.565Z,42.73
2018-02-07T08:26:42.650Z,47.23
2018-02-07T08:29:44.021Z,44.23
2018-02-07T08:32:45.404Z,49.80
2018-02-07T08:35:46.734Z,45.73
2018-02-07T08:38:48.076Z,54.50
2018-02-07T08:41:49.443Z,55.47
2018-02-07T08:44:50.966Z,51.90
2018-02-07T08:47:53.066Z,47.47
2018-02-07T08:50:54.408Z,49.10
2018-02-07T08:53:55.770Z,50.30
2018-02-07T08:56:57.234Z,54.50
2018-02-07T08:59:58.781Z,45.20
2018-02-07T09:03:00.959Z,46.67
2018-02-07T09:06:02.385Z,52.00
2018-02-07T09:09:03.792Z,47.73
2018-02-07T09:12:05.145Z,47.07
2018-02-07T09:15:07.614Z,47.77
2018-02-07T09:18:08.974Z,53.07
2018-02-07T09:21:10.322Z,46.97
2018-02-07T09:24:11.656Z,46.80
2018-02-07T09:27:13.002Z,51.37
2018-02-07T09:30:14.578Z,45.93
2018-02-07T09:33:16.726Z,46.13
2018-02-07T09:36:18.081Z,49.23
2018-02-07T09:39:19.413Z,56.63
2018-02-07T09:42:20.781Z,48.23
2018-02-07T09:45:22.872Z,49.63
2018-02-07T09:48:24.964Z,47.10
2018-02-07T09:51:26.291Z,53.57
2018-02-07T09:54:27.720Z,49.80
2018-02-07T09:57:29.092Z,54.77
2018-02-07T10:00:30.468Z,48.57
2018-02-07T10:03:31.834Z,46.90
2018-02-07T10:06:33.246Z,53.73
2018-02-07T10:09:34.568Z,54.27
2018-02-07T10:12:35.954Z,47.60
2018-02-07T10:15:37.360Z,63.33
2018-02-07T10:18:38.701Z,53.77
2018-02-07T10:21:40.120Z,54.93
2018-02-07T10:24:41.478Z,53.20
2018-02-07T10:27:42.844Z,50.47
2018-02-07T10:30:44.205Z,54.10
2018-02-07T10:33:46.380Z,52.43
2018-02-07T10:36:47.774Z,46.73
2018-02-07T10:39:49.153Z,48.80
2018-02-07T10:42:50.531Z,50.03
2018-02-07T10:45:51.887Z,51.67
2018-02-07T10:48:53.232Z,45.90
2018-02-07T10:51:54.576Z,47.17
2018-02-07T10:54:55.933Z,47.00
2018-02-07T10:58:04.292Z,43.50
2018-02-07T11:01:05.667Z,45.90
2018-02-07T11:04:07.033Z,53.17
2018-02-07T11:07:08.459Z,52.10
2018-02-07T11:10:09.844Z,52.57
2018-02-07T11:13:11.957Z,58.33
2018-02-07T11:16:13.329Z,58.47
2018-02-07T11:19:15.393Z,48.80
2018-02-07T11:22:16.754Z,49.87
2018-02-07T11:25:18.157Z,53.13
2018-02-07T11:28:19.517Z,52.57
2018-02-07T11:31:20.917Z,53.73
2018-02-07T11:34:22.309Z,50.40
2018-02-07T11:37:23.717Z,48.20
2018-02-07T11:40:25.802Z,61.50
2018-02-07T11:43:27.976Z,52.73
2018-02-07T11:46:29.380Z,50.37
2018-02-07T11:49:30.796Z,49.77
2018-02-07T11:52:32.237Z,46.50
2018-02-07T11:55:33.646Z,42.17
2018-02-07T11:58:35.754Z,43.20
2018-02-07T12:01:37.162Z,49.43
2018-02-07T12:04:38.558Z,44.93
2018-02-07T12:07:39.903Z,47.10
2018-02-07T12:10:41.285Z,49.77
2018-02-07T12:13:42.642Z,44.57
2018-02-07T12:16:44.763Z,52.33
2018-02-07T12:19:46.121Z,55.50
2018-02-07T12:22:48.228Z,51.70
2018-02-07T12:25:50.302Z,47.63
2018-02-07T12:28:52.441Z,49.63
2018-02-07T12:31:53.799Z,49.67
2018-02-07T12:34:55.956Z,50.50
2018-02-07T12:37:58.080Z,54.07
2018-02-07T12:40:59.405Z,59.90
2018-02-07T12:44:00.722Z,49.90
2018-02-07T12:47:02.145Z,45.97
2018-02-07T12:50:04.253Z,57.73
2018-02-07T12:53:05.766Z,47.73
2018-02-07T12:56:07.188Z,48.60
2018-02-07T12:59:08.759Z,56.87
2018-02-07T13:02:10.261Z,54.47
2018-02-07T13:05:12.328Z,61.40
2018-02-07T13:08:14.664Z,50.80
2018-02-07T13:11:16.768Z,66.07
2018-02-07T13:14:18.877Z,58.60
2018-02-07T13:17:20.190Z,50.03
2018-02-07T13:20:21.470Z,52.93
2018-02-07T13:23:22.791Z,61.83
2018-02-07T13:26:24.094Z,51.93
2018-02-07T13:29:25.420Z,51.80
2018-02-07T13:32:26.827Z,52.53
2018-02-07T13:35:28.219Z,52.73
2018-02-07T13:38:29.578Z,52.93
2018-02-07T13:41:31.645Z,56.07
2018-02-07T13:44:33.003Z,47.83
2018-02-07T13:47:34.294Z,72.43
2018-02-07T13:50:35.589Z,72.80
2018-02-07T13:53:36.901Z,55.67
2018-02-07T13:56:38.376Z,49.40
2018-02-07T13:59:39.666Z,48.07
2018-02-07T14:02:40.973Z,56.10
2018-02-07T14:05:42.330Z,55.87
2018-02-07T14:08:43.627Z,53.23
2018-02-07T14:11:44.950Z,55.40
2018-02-07T14:14:47.000Z,54.47
2018-02-07T14:17:48.347Z,53.30
2018-02-07T14:20:49.640Z,50.43
2018-02-07T14:23:51.046Z,59.03
2018-02-07T14:26:52.386Z,50.47
2018-02-07T14:29:53.699Z,56.37
2018-02-07T14:32:55.047Z,48.63
2018-02-07T14:35:56.362Z,45.30
2018-02-07T14:38:57.758Z,51.40
2018-02-07T14:41:59.052Z,47.70
2018-02-07T14:45:01.142Z,45.57
2018-02-07T14:48:02.474Z,41.60
2018-02-07T14:51:03.784Z,47.53
2018-02-07T14:54:05.123Z,60.00
2018-02-07T14:57:13.626Z,46.97
2018-02-07T15:00:14.969Z,47.27
2018-02-07T15:03:16.321Z,40.47
2018-02-07T15:06:18.374Z,46.90
2018-02-07T15:09:19.701Z,41.60
2018-02-07T15:12:21.914Z,46.60
2018-02-07T15:15:23.253Z,43.00
2018-02-07T15:18:25.355Z,45.23
2018-02-07T15:21:27.426Z,49.57
2018-02-07T15:24:28.782Z,38.70
2018-02-07T15:27:30.105Z,50.67
2018-02-07T15:30:31.415Z,41.83
2018-02-07T15:33:32.776Z,47.17
2018-02-07T15:36:34.811Z,38.27
2018-02-07T15:39:36.129Z,44.23
2018-02-07T15:42:37.470Z,47.90
2018-02-07T15:45:38.787Z,42.20
2018-02-07T15:48:40.105Z,47.07
2018-02-07T15:51:42.185Z,54.63
2018-02-07T15:54:44.262Z,55.17
2018-02-07T15:57:45.610Z,53.97
2018-02-07T16:00:46.943Z,44.10
2018-02-07T16:03:48.244Z,45.97
2018-02-07T16:06:50.313Z,45.27
2018-02-07T16:09:51.634Z,45.53
2018-02-07T16:12:52.972Z,46.37
2018-02-07T16:15:54.303Z,43.17
2018-02-07T16:18:55.662Z,47.07
2018-02-07T16:21:57.737Z,41.80
2018-02-07T16:24:59.134Z,41.03
2018-02-07T16:28:01.274Z,43.00
2018-02-07T16:31:02.611Z,55.67
2018-02-07T16:34:04.806Z,56.13
2018-02-07T16:37:06.156Z,47.33
2018-02-07T16:40:07.454Z,49.37
2018-02-07T16:43:08.760Z,47.07
2018-02-07T16:46:10.844Z,52.43
2018-02-07T16:49:12.901Z,45.13
2018-02-07T16:52:14.218Z,38.77
2018-02-07T16:55:15.543Z,43.43
2018-02-07T16:58:16.930Z,46.17
2018-02-07T17:01:18.289Z,37.30
2018-02-07T17:04:19.604Z,42.73
2018-02-07T17:07:20.953Z,40.63
2018-02-07T17:10:22.299Z,49.37
2018-02-07T17:13:23.619Z,44.30
2018-02-07T17:16:24.988Z,46.60
2018-02-07T17:19:26.384Z,42.77
2018-02-07T17:22:28.425Z,44.30
2018-02-07T17:25:29.759Z,36.80
2018-02-07T17:28:31.097Z,39.40
2018-02-07T17:31:32.452Z,34.67
2018-02-07T17:34:33.886Z,39.53
2018-02-07T17:37:35.236Z,48.27
2018-02-07T17:40:37.304Z,80.03
2018-02-07T17:43:38.655Z,50.60
2018-02-07T17:46:39.985Z,42.47
2018-02-07T17:49:41.285Z,33.27
2018-02-07T17:52:43.345Z,47.93
2018-02-07T17:55:44.682Z,61.37
2018-02-07T17:58:46.004Z,41.97
2018-02-07T18:01:47.332Z,49.80
2018-02-07T18:04:48.679Z,34.30
2018-02-07T18:07:50.060Z,37.80
2018-02-07T18:10:51.356Z,50.03
2018-02-07T18:13:52.735Z,40.60
2018-02-07T18:16:54.086Z,46.47
2018-02-07T18:19:55.460Z,60.93
2018-02-07T18:22:56.980Z,39.40
2018-02-07T18:25:58.909Z,43.07
2018-02-07T18:29:00.400Z,42.27
2018-02-07T18:32:02.096Z,35.07
2018-02-07T18:35:03.721Z,42.70
2018-02-07T18:38:05.162Z,36.60
2018-02-07T18:41:06.527Z,37.33
2018-02-07T18:44:07.925Z,35.37
2018-02-07T18:47:09.368Z,39.70
2018-02-07T18:50:11.574Z,35.23
2018-02-07T18:53:13.817Z,37.90
2018-02-07T18:59:23.368Z,43.37
2018-02-07T19:02:24.784Z,43.30
2018-02-07T19:05:26.912Z,49.73
2018-02-07T19:08:28.320Z,42.20
2018-02-07T19:11:29.710Z,39.90
2018-02-07T19:14:31.084Z,35.20
2018-02-07T19:17:33.332Z,34.70
2018-02-07T19:20:35.630Z,35.37
2018-02-07T19:23:37.880Z,34.73
2018-02-07T19:26:39.278Z,34.37
2018-02-07T19:29:40.759Z,37.67
2018-02-07T19:32:42.280Z,33.97
2018-02-07T19:35:44.473Z,33.20
2018-02-07T19:38:46.636Z,44.20
2018-02-07T19:41:48.041Z,35.77
2018-02-07T19:44:49.538Z,35.20
2018-02-07T19:47:51.033Z,39.90
2018-02-07T19:50:53.327Z,38.73
2018-02-07T19:53:54.799Z,39.20
2018-02-07T19:56:56.394Z,36.17
2018-02-07T19:59:57.910Z,34.97
2018-02-07T20:02:59.518Z,34.87
2018-02-07T20:06:01.059Z,37.93
2018-02-07T20:09:03.297Z,35.60
2018-02-07T20:12:04.738Z,36.97
2018-02-07T20:15:06.886Z,35.20
2018-02-07T20:18:08.599Z,33.00
2018-02-07T20:21:09.970Z,34.20
2018-02-07T20:24:11.529Z,37.73
2018-02-07T20:27:12.915Z,46.37
2018-02-07T20:30:14.263Z,34.77
2018-02-07T20:33:16.408Z,38.63
2018-02-07T20:36:18.050Z,35.60
2018-02-07T20:39:20.332Z,40.70
2018-02-07T20:42:21.890Z,36.17
2018-02-07T20:45:23.403Z,105.73
2018-02-07T20:48:25.569Z,45.40
2018-02-07T20:51:27.035Z,38.70
2018-02-07T20:54:28.536Z,33.80
2018-02-07T20:57:29.942Z,41.20
2018-02-07T21:00:31.373Z,35.63
2018-02-07T21:03:33.736Z,34.90
2018-02-07T21:12:11.189Z,32.97
2018-02-07T21:15:12.893Z,38.77
2018-02-07T21:18:14.422Z,48.47
2018-02-07T21:21:17.676Z,36.07
2018-02-07T21:24:19.908Z,42.17
2018-02-07T21:27:21.323Z,35.83
2018-02-07T21:30:22.779Z,36.83
2018-02-07T21:33:24.402Z,41.87
2018-02-07T21:36:25.738Z,37.20
2018-02-07T21:42:36.796Z,37.60
2018-02-07T21:45:38.242Z,36.60
2018-02-07T21:48:40.441Z,31.53
2018-02-07T21:51:42.263Z,45.00
2018-02-07T21:54:43.748Z,33.27
2018-02-07T21:57:45.203Z,40.37
2018-02-07T22:00:46.585Z,39.30
2018-02-07T22:03:48.732Z,38.47
2018-02-07T22:06:50.152Z,35.20
2018-02-07T22:09:51.768Z,39.53
2018-02-07T22:12:53.583Z,39.10
2018-02-07T22:15:55.078Z,38.50
2018-02-07T22:18:56.401Z,33.47
2018-02-07T22:21:58.550Z,37.77
2018-02-07T22:24:59.864Z,49.10
2018-02-07T22:28:01.896Z,40.77
2018-02-07T22:31:03.296Z,37.77
2018-02-07T22:34:04.695Z,34.30
2018-02-07T22:37:06.774Z,32.77
2018-02-07T22:40:08.517Z,31.53
2018-02-07T22:43:10.612Z,38.37
2018-02-07T22:46:11.955Z,39.27
2018-02-07T22:49:13.295Z,34.23
2018-02-07T22:52:15.355Z,37.60
2018-02-07T22:55:19.544Z,32.17
2018-02-07T22:58:21.658Z,37.23
2018-02-07T23:01:23.007Z,37.00
2018-02-07T23:04:24.326Z,38.40
2018-02-07T23:07:25.734Z,38.80
2018-02-07T23:10:27.057Z,36.53
2018-02-07T23:13:29.153Z,33.97
2018-02-07T23:16:31.257Z,37.00
2018-02-07T23:19:33.341Z,34.53
2018-02-07T23:22:35.427Z,37.20
2018-02-07T23:25:36.762Z,37.20
2018-02-07T23:28:38.136Z,37.67
2018-02-07T23:31:39.510Z,35.10
2018-02-07T23:34:40.888Z,37.03
2018-02-07T23:37:42.216Z,35.20
2018-02-07T23:40:43.544Z,41.03
2018-02-07T23:43:44.907Z,38.13
2018-02-07T23:46:46.967Z,35.20
2018-02-07T23:49:48.297Z,33.23
2018-02-07T23:52:50.383Z,34.80
2018-02-07T23:55:51.745Z,34.83
2018-02-07T23:58:53.047Z,39.97
